createdAt,value
2018-05-04T08:57:47.612Z,60.30
2018-05-04T09:00:14.044Z,60.00
2018-05-04T09:02:40.478Z,58.20
2018-05-04T09:05:07.013Z,58.10
2018-05-04T09:07:34.214Z,57.50
2018-05-04T09:10:00.638Z,58.10
2018-05-04T16:23:02.237Z,53.80
2018-05-04T16:25:28.841Z,52.60
2018-05-04T16:27:55.339Z,53.00
2018-05-04T16:30:22.845Z,54.30
2018-05-04T16:32:49.467Z,56.00
2018-05-04T16:35:15.908Z,52.50
2018-05-04T16:37:42.371Z,52.00
2018-05-04T16:40:08.894Z,52.10
2018-05-04T16:42:36.146Z,53.90
2018-05-04T16:45:02.776Z,53.80
2018-05-04T16:47:30.028Z,51.10
2018-05-04T16:49:57.345Z,53.00
2018-05-04T16:52:23.960Z,52.80
2018-05-04T16:54:52.187Z,51.10
2018-05-04T16:57:18.766Z,52.00
2018-05-04T16:59:45.386Z,52.10
2018-05-04T17:02:11.915Z,50.30
2018-05-04T17:04:38.402Z,51.70
2018-05-04T17:07:05.076Z,50.60
2018-05-04T17:09:32.966Z,50.40
2018-05-04T17:11:59.564Z,50.20
2018-05-04T17:14:27.198Z,50.20
2018-05-04T17:16:53.743Z,50.40
2018-05-04T17:19:20.258Z,49.80
2018-05-04T17:21:46.756Z,49.50
2018-05-04T17:24:13.992Z,49.40
2018-05-04T17:26:40.443Z,49.30
2018-05-04T17:29:06.981Z,49.80
2018-05-04T17:31:33.491Z,49.80
2018-05-04T17:34:00.744Z,50.20
2018-05-04T17:36:27.219Z,50.20
2018-05-04T17:38:53.729Z,50.10
2018-05-04T17:41:20.182Z,50.20
2018-05-04T17:43:46.661Z,50.30
2018-05-04T17:46:13.249Z,50.50
2018-05-04T17:48:39.729Z,50.60
2018-05-04T17:51:06.162Z,50.60
2018-05-04T17:53:32.629Z,50.80
2018-05-04T17:55:59.229Z,50.40
2018-05-04T17:58:25.762Z,50.40
2018-05-04T18:00:52.271Z,50.30
2018-05-04T18:03:18.732Z,50.40
2018-05-04T18:05:45.214Z,50.60
2018-05-04T18:08:11.694Z,50.50
2018-05-04T18:10:38.174Z,50.30
2018-05-04T18:13:04.683Z,50.40
2018-05-04T18:15:31.267Z,50.60
2018-05-04T18:17:57.839Z,50.70
2018-05-04T18:20:24.266Z,50.80
2018-05-04T18:22:50.685Z,50.70
2018-05-04T18:25:17.251Z,50.80
2018-05-04T18:27:44.706Z,51.20
2018-05-04T18:30:11.119Z,51.00
2018-05-04T18:32:38.000Z,51.10
2018-05-04T18:35:05.180Z,51.60
2018-05-04T18:37:31.749Z,51.60
2018-05-04T18:39:58.284Z,51.20
2018-05-04T18:42:24.794Z,50.90
2018-05-04T18:44:51.399Z,50.80
2018-05-04T18:47:18.713Z,50.10
2018-05-04T18:49:45.343Z,50.20
2018-05-04T18:52:11.875Z,51.40
2018-05-04T18:54:38.419Z,50.00
2018-05-04T18:57:04.935Z,50.70
2018-05-04T18:59:31.507Z,50.00
2018-05-04T19:01:58.044Z,50.00
2018-05-04T19:04:24.541Z,49.80
2018-05-04T19:06:51.171Z,49.30
2018-05-04T19:09:17.648Z,50.20
2018-05-04T19:11:44.225Z,50.20
2018-05-04T19:14:10.728Z,49.40
2018-05-04T19:16:37.320Z,49.30
2018-05-04T19:19:04.573Z,49.80
2018-05-04T19:21:31.484Z,49.80
2018-05-04T19:23:59.082Z,50.10
2018-05-04T19:26:25.646Z,52.40
2018-05-04T19:28:52.097Z,51.20
2018-05-04T19:31:19.479Z,51.10
2018-05-04T19:33:46.030Z,50.50
2018-05-04T19:36:12.734Z,50.50
2018-05-04T19:38:40.104Z,50.20
2018-05-04T19:41:06.704Z,50.20
2018-05-04T19:43:33.443Z,50.00
2018-05-04T19:45:59.918Z,49.80
2018-05-04T19:48:26.395Z,49.70
2018-05-04T19:50:52.941Z,50.40
2018-05-04T19:53:20.199Z,50.60
2018-05-04T19:55:46.690Z,50.00
2018-05-04T19:58:13.681Z,49.80
2018-05-04T20:00:41.162Z,50.10
2018-05-04T20:03:08.765Z,49.80
2018-05-04T20:05:38.675Z,49.80
2018-05-04T20:08:05.281Z,49.60
2018-05-04T20:10:31.888Z,50.20
2018-05-04T20:12:58.445Z,50.30
2018-05-04T20:15:25.524Z,50.40
2018-05-04T20:17:52.949Z,50.30
2018-05-04T20:20:20.173Z,50.20
2018-05-04T20:22:47.605Z,50.80
2018-05-04T20:25:14.180Z,50.70
2018-05-04T20:27:41.476Z,50.40
2018-05-04T20:30:07.966Z,50.40
2018-05-04T20:32:35.264Z,50.70
